Monday, December 10, 2018, 10:23 PM EST
Back to Local

KLEW, Auburn-lewiston

Location: Auburn, ME, United States Lat: 44.05
Local Time: 10:23 PM EST ( 3:23 GMT) Lon: -70.283
Time Zone: US/Eastern Elev: 288 ft

Show me the last for .
Show Coded

Time T Td Feel RH Dir Speed Gust Alt SLP Vis Weather Sky Remarks
2018-12-10 21:56 14 6 6 70 360° 5 - 30.17 30.21 10 CLR None
2018-12-10 20:56 14 7 3 73 340° 8 - 30.16 30.21 10 CLR None
2018-12-10 19:56 16 7 5 66 360° 8 - 30.16 30.21 10 CLR None
2018-12-10 18:56 19 7 7 58 340° 10 - 30.16 30.20 10 CLR 6-hr Min Temp (7pm): 18.0°F
6-hr Max Temp (7pm): 28.0°F
2018-12-10 17:56 20 7 11 56 330° 7 - 30.14 30.19 10 CLR None
2018-12-10 16:56 21 8 11 56 350° 8 - 30.14 30.19 10 CLR None
2018-12-10 15:56 25 9 15 49 340° 10 - 30.11 30.16 10 CLR None
2018-12-10 14:56 27 9 18 45 330° 9 - 30.10 30.15 10 CLR None
2018-12-10 13:56 27 9 17 45 330° 12 - 30.08 30.13 10 CLR None
2018-12-10 12:56 27 11 16 50 320° 13 - 30.08 30.13 10 CLR 6-hr Min Temp (1pm): 10.0°F
6-hr Max Temp (1pm): 28.0°F
2018-12-10 11:56 27 11 18 50 340° 9 - 30.09 30.14 10 CLR None
2018-12-10 10:56 26 11 15 52 360° 13 - 30.10 30.15 10 CLR None
2018-12-10 09:56 25 12 10 57 350° 12 22 30.12 30.16 10 CLR None
2018-12-10 08:56 21 17 9 84 20° 13 - 30.10 30.15 10 CLR None
2018-12-10 07:56 14 12 8 91 330° 3 - 30.09 30.14 10 CLR None
2018-12-10 06:56 11 8 5 87 20° 3 - 30.07 30.12 10 CLR 6-hr Min Temp (7am): 8.1°F
6-hr Max Temp (7am): 12.9°F
2018-12-10 05:56 10 7 4 87 350° 3 - 30.07 30.12 10 BKN041 None
2018-12-10 04:56 12 10 - 91 - Calm - 30.05 30.10 10 FEW039 SCT050 None
2018-12-10 03:56 10 8 2 91 360° 5 - 30.03 30.08 10 SCT050 None
2018-12-10 02:56 12 11 - 95 - Calm - 30.04 30.09 10 CLR None
2018-12-10 01:56 12 9 - 87 - Calm - 30.06 30.11 10 SCT050 None
2018-12-10 00:56 11 8 - 87 - Calm - 30.05 30.10 10 CLR 6-hr Min Temp (1am): 10.0°F
6-hr Max Temp (1am): 21.0°F
2018-12-09 23:56 13 11 7 91 160° 3 - 30.06 30.11 10 CLR None
2018-12-09 22:56 16 12 - 84 - Calm - 30.06 30.11 10 CLR 24-hr Min Temp (11pm): 1.0°F
24-hr Max Temp (11pm): 33.1°F

Support USWX by starting your Amazon purchase here.